createdAt,value
2022-08-26T00:02:54.341Z,5.95
2022-08-26T00:07:57.680Z,6.07
2022-08-26T00:12:59.548Z,6.57
2022-08-26T00:18:01.372Z,5.82
2022-08-26T00:23:03.902Z,6.03
2022-08-26T00:28:06.753Z,5.40
2022-08-26T00:33:09.493Z,5.32
2022-08-26T00:38:11.534Z,6.13
2022-08-26T00:43:14.276Z,6.03
2022-08-26T00:48:21.189Z,6.30
2022-08-26T00:53:26.405Z,5.47
2022-08-26T00:58:34.117Z,6.35
2022-08-26T01:03:38.547Z,6.32
2022-08-26T01:08:41.676Z,6.10
2022-08-26T01:13:43.984Z,6.78
2022-08-26T01:18:47.030Z,6.63
2022-08-26T01:23:51.810Z,6.50
2022-08-26T01:29:03.151Z,4.85
2022-08-26T01:34:18.491Z,6.32
2022-08-26T01:39:21.801Z,6.35
2022-08-26T01:44:27.203Z,6.35
2022-08-26T01:49:29.936Z,6.65
2022-08-26T01:54:34.438Z,6.45
2022-08-26T01:59:36.451Z,6.97
2022-08-26T02:04:48.338Z,6.32
2022-08-26T02:09:52.149Z,6.78
2022-08-26T02:14:57.637Z,6.45
2022-08-26T02:20:01.699Z,5.97
2022-08-26T02:25:18.840Z,6.53
2022-08-26T02:30:26.093Z,5.50
2022-08-26T02:35:32.466Z,5.43
2022-08-26T02:40:41.196Z,6.03
2022-08-26T02:45:43.779Z,6.20
2022-08-26T02:50:47.117Z,5.38
2022-08-26T02:55:49.625Z,6.70
2022-08-26T03:00:53.021Z,6.07
2022-08-26T03:05:55.921Z,5.45
2022-08-26T03:10:57.890Z,5.47
2022-08-26T03:16:02.488Z,6.10
2022-08-26T03:21:10.936Z,4.90
2022-08-26T03:26:14.805Z,5.05
2022-08-26T03:31:16.950Z,5.68
2022-08-26T03:36:19.537Z,5.38
2022-08-26T03:41:22.009Z,5.97
2022-08-26T03:46:24.002Z,4.60
2022-08-26T03:51:29.390Z,6.03
2022-08-26T03:56:33.854Z,6.15
2022-08-26T04:01:37.316Z,5.70
2022-08-26T04:06:44.988Z,5.82
2022-08-26T04:11:50.572Z,6.13
2022-08-26T04:16:55.354Z,6.30
2022-08-26T04:21:57.955Z,6.45
2022-08-26T04:26:59.937Z,6.47
2022-08-26T04:32:03.524Z,6.85
2022-08-26T04:37:06.539Z,6.32
2022-08-26T04:42:19.891Z,7.32
2022-08-26T04:47:49.034Z,6.53
2022-08-26T04:52:51.866Z,6.63
2022-08-26T04:57:53.893Z,5.13
2022-08-26T05:02:56.122Z,5.68
2022-08-26T05:07:59.525Z,6.30
2022-08-26T05:13:03.605Z,6.45
2022-08-26T05:18:15.285Z,6.30
2022-08-26T05:23:18.800Z,6.28
2022-08-26T05:28:22.801Z,4.65
2022-08-26T05:33:25.313Z,6.57
2022-08-26T05:38:30.342Z,6.55
2022-08-26T05:43:35.230Z,5.32
2022-08-26T05:48:37.676Z,6.50
2022-08-26T05:53:43.820Z,6.40
2022-08-26T05:58:46.940Z,6.53
2022-08-26T06:03:56.307Z,6.15
2022-08-26T06:09:01.189Z,6.95
2022-08-26T06:14:05.772Z,6.18
2022-08-26T06:19:11.566Z,5.65
2022-08-26T06:24:33.338Z,5.97
2022-08-26T06:29:37.585Z,6.22
2022-08-26T06:34:40.630Z,5.70
2022-08-26T06:39:43.464Z,4.80
2022-08-26T06:44:45.376Z,5.63
2022-08-26T06:49:47.464Z,5.18
2022-08-26T06:54:50.829Z,7.18
2022-08-26T06:59:53.149Z,5.18
2022-08-26T07:04:56.908Z,6.78
2022-08-26T07:09:59.941Z,5.40
2022-08-26T07:15:02.342Z,5.88
2022-08-26T07:20:08.590Z,6.55
2022-08-26T07:25:11.749Z,5.72
2022-08-26T07:30:15.226Z,6.40
2022-08-26T07:35:23.876Z,6.07
2022-08-26T07:40:26.127Z,5.45
2022-08-26T07:45:29.480Z,5.38
2022-08-26T07:50:49.333Z,6.25
2022-08-26T07:55:53.194Z,4.97
2022-08-26T08:00:56.094Z,5.45
2022-08-26T08:05:58.419Z,5.68
2022-08-26T08:11:00.875Z,6.35
2022-08-26T08:16:05.535Z,4.40
2022-08-26T08:21:23.772Z,5.70
2022-08-26T08:26:27.261Z,5.68
2022-08-26T08:31:56.193Z,4.20
2022-08-26T08:36:56.311Z,4.82
2022-08-26T08:42:11.507Z,5.60
2022-08-26T08:47:59.084Z,4.82
2022-08-26T08:53:17.957Z,4.13
2022-08-26T08:58:25.300Z,4.40
2022-08-26T09:04:06.219Z,5.00
2022-08-26T09:09:14.255Z,4.53
2022-08-26T09:14:17.884Z,5.32
2022-08-26T09:19:23.605Z,5.05
2022-08-26T09:24:29.038Z,4.97
2022-08-26T09:29:41.736Z,5.18
2022-08-26T09:35:06.183Z,4.38
2022-08-26T09:40:16.136Z,5.22
2022-08-26T09:45:28.313Z,5.13
2022-08-26T09:51:01.902Z,4.65
2022-08-26T09:56:37.019Z,3.97
2022-08-26T10:01:42.838Z,4.25
2022-08-26T10:07:34.774Z,3.93
2022-08-26T10:12:47.821Z,4.57
2022-08-26T10:17:58.228Z,4.90
2022-08-26T10:23:17.415Z,4.25
2022-08-26T10:28:41.871Z,3.38
2022-08-26T10:33:47.345Z,2.80
2022-08-26T10:38:51.142Z,2.42
2022-08-26T10:43:59.438Z,2.20
2022-08-26T10:49:10.442Z,1.75
2022-08-26T10:54:28.911Z,1.38
2022-08-26T10:59:49.043Z,0.90
2022-08-26T11:05:03.856Z,2.00
2022-08-26T11:10:16.966Z,1.10
2022-08-26T11:15:24.475Z,1.45
2022-08-26T11:20:47.316Z,1.75
2022-08-26T11:26:05.353Z,2.00
2022-08-26T11:31:19.637Z,1.75
2022-08-26T11:36:38.514Z,2.53
2022-08-26T11:41:44.810Z,2.63
2022-08-26T11:47:15.157Z,2.40
2022-08-26T11:52:22.627Z,3.45
2022-08-26T12:02:28.125Z,3.80
2022-08-26T12:07:31.075Z,4.10
2022-08-26T12:12:37.711Z,3.65
2022-08-26T12:17:40.683Z,4.13
2022-08-26T12:22:48.275Z,4.40
2022-08-26T12:27:53.710Z,3.05
2022-08-26T12:33:22.657Z,4.88
2022-08-26T12:38:28.477Z,3.53
2022-08-26T12:43:57.105Z,3.38
2022-08-26T12:49:03.768Z,3.15
2022-08-26T12:54:07.424Z,2.20
2022-08-26T12:59:17.771Z,4.03
2022-08-26T13:04:44.220Z,3.33
2022-08-26T13:09:46.460Z,3.38
2022-08-26T13:14:52.429Z,2.80
2022-08-26T13:19:54.837Z,2.58
2022-08-26T13:24:57.568Z,2.58
2022-08-26T13:30:01.884Z,2.75
2022-08-26T13:35:11.948Z,2.70
2022-08-26T13:40:14.774Z,3.05
2022-08-26T13:45:17.221Z,3.00
2022-08-26T13:50:19.214Z,2.38
2022-08-26T13:55:21.222Z,2.15
2022-08-26T14:00:23.398Z,1.73
2022-08-26T14:05:25.997Z,2.83
2022-08-26T14:10:28.563Z,3.50
2022-08-26T14:15:36.318Z,2.58
2022-08-26T14:20:39.506Z,3.00
2022-08-26T14:25:42.141Z,2.40
2022-08-26T14:30:47.838Z,2.67
2022-08-26T14:35:49.974Z,2.90
2022-08-26T14:40:52.468Z,2.40
2022-08-26T14:45:54.482Z,2.75
2022-08-26T14:50:56.557Z,3.47
2022-08-26T14:55:59.024Z,3.00
2022-08-26T15:01:00.986Z,3.25
2022-08-26T15:06:06.957Z,3.05
2022-08-26T15:11:09.081Z,3.38
2022-08-26T15:16:11.899Z,2.70
2022-08-26T15:21:14.186Z,2.70
2022-08-26T15:26:17.705Z,2.47
2022-08-26T15:31:25.952Z,2.78
2022-08-26T15:36:29.049Z,3.03
2022-08-26T15:41:34.708Z,2.58
2022-08-26T15:46:38.552Z,2.70
2022-08-26T15:51:45.659Z,2.60
2022-08-26T15:56:51.820Z,1.98
2022-08-26T16:01:53.976Z,2.00
2022-08-26T16:06:57.887Z,2.17
2022-08-26T16:11:59.934Z,2.45
2022-08-26T16:17:07.295Z,2.15
2022-08-26T16:22:09.285Z,2.28
2022-08-26T16:27:11.319Z,2.30
2022-08-26T16:32:14.855Z,2.40
2022-08-26T16:37:17.084Z,2.53
2022-08-26T16:42:19.077Z,2.47
2022-08-26T16:47:21.616Z,2.47
2022-08-26T16:52:24.873Z,1.85
2022-08-26T16:57:32.772Z,2.17
2022-08-26T17:02:35.007Z,2.28
2022-08-26T17:07:38.152Z,2.65
2022-08-26T17:12:40.868Z,3.22
2022-08-26T17:17:43.249Z,2.40
2022-08-26T17:22:48.480Z,2.78
2022-08-26T17:27:51.755Z,2.88
2022-08-26T17:32:54.405Z,2.83
2022-08-26T17:37:56.604Z,2.72
2022-08-26T17:42:59.458Z,2.70
2022-08-26T17:48:01.801Z,2.45
2022-08-26T17:53:04.854Z,3.20
2022-08-26T17:58:07.196Z,2.40
2022-08-26T18:03:12.430Z,2.88
2022-08-26T18:08:14.731Z,3.13
2022-08-26T18:13:18.158Z,2.78
2022-08-26T18:18:20.305Z,3.63
2022-08-26T18:23:22.393Z,3.42
2022-08-26T18:28:24.419Z,3.88
2022-08-26T18:33:26.290Z,3.00
2022-08-26T18:38:28.453Z,3.25
2022-08-26T18:43:30.467Z,3.03
2022-08-26T18:48:32.466Z,3.05
2022-08-26T18:53:35.588Z,2.88
2022-08-26T18:58:37.449Z,3.28
2022-08-26T19:03:39.401Z,2.95
2022-08-26T19:08:44.754Z,2.80
2022-08-26T19:13:47.237Z,2.72
2022-08-26T19:18:50.525Z,2.88
2022-08-26T19:23:58.238Z,2.58
2022-08-26T19:29:01.195Z,3.03
2022-08-26T19:34:05.446Z,3.65
2022-08-26T19:39:08.327Z,2.65
2022-08-26T19:44:34.825Z,3.10
2022-08-26T19:49:37.703Z,3.00
2022-08-26T19:54:41.239Z,2.90
2022-08-26T19:59:43.572Z,3.13
2022-08-26T20:04:46.158Z,2.50
2022-08-26T20:09:49.186Z,2.75
2022-08-26T20:14:51.090Z,3.28
2022-08-26T20:20:32.606Z,3.05
2022-08-26T20:25:34.527Z,3.28
2022-08-26T20:30:36.379Z,3.22
2022-08-26T20:35:38.176Z,3.67
2022-08-26T20:40:42.477Z,3.40
2022-08-26T20:45:44.649Z,3.92
2022-08-26T20:50:46.676Z,2.55
2022-08-26T20:55:51.579Z,3.30
2022-08-26T21:00:53.486Z,3.20
2022-08-26T21:05:55.485Z,4.18
2022-08-26T21:10:57.309Z,2.78
2022-08-26T21:15:59.346Z,2.90
2022-08-26T21:21:09.118Z,3.20
2022-08-26T21:26:13.438Z,3.50
2022-08-26T21:31:22.571Z,2.88
2022-08-26T21:36:25.062Z,3.08
2022-08-26T21:41:27.596Z,3.53
2022-08-26T21:46:31.241Z,4.18
2022-08-26T21:51:36.013Z,3.42
2022-08-26T21:56:42.061Z,3.47
2022-08-26T22:01:43.882Z,3.58
2022-08-26T22:06:49.597Z,3.22
2022-08-26T22:11:52.698Z,3.47
2022-08-26T22:16:57.012Z,4.10
2022-08-26T22:21:59.518Z,4.07
2022-08-26T22:27:01.551Z,3.67
2022-08-26T22:32:03.987Z,4.07
2022-08-26T22:37:05.941Z,3.78
2022-08-26T22:42:07.890Z,3.85
2022-08-26T22:47:09.897Z,4.07
2022-08-26T22:52:12.050Z,3.88
2022-08-26T22:57:13.831Z,3.80
2022-08-26T23:02:15.767Z,4.03
2022-08-26T23:07:18.217Z,3.85
2022-08-26T23:12:20.057Z,4.10
2022-08-26T23:17:22.238Z,3.63
2022-08-26T23:22:25.224Z,4.00
2022-08-26T23:27:28.221Z,4.10
2022-08-26T23:32:30.297Z,3.80
2022-08-26T23:37:35.868Z,3.80
2022-08-26T23:42:38.448Z,3.08
2022-08-26T23:47:41.335Z,2.95
2022-08-26T23:53:02.041Z,2.92
2022-08-26T23:58:05.457Z,2.55
